Airfield :
LOGIN :

Register | Disclaimer

   EN    FR    IT 

 










Legend :    VFR   Marginal VFR   IFR   Intensive IFR   Very Intensive IFR
Visi :
Ceiling :
>= 8 km
>= 3000ft
5 to 8 km
1000 to 3000 ft
1500m to 5 km
500 to 1000 ft
800 to 1500m
200 to 500 ft
< 800m
< 200 ft
Symbols :   Thunderstorms  Fog  Heavy snow  Heavy precipitations  Wind > 20 kt
SIGMETs :     Misc.  Thunderstorms  Icing  Turbulence  Mountain Waves  Volcanic Ashes






- Airport Elevation : 19 ft
- IATA code : LCY


EGLC - London City

CURRENT METAR :
  • 270620Z AUTO VRB03KT 9999 NCD 15/10 Q1036

EXPIRED METARs :
  • 270550Z AUTO VRB03KT 9999 NCD 15/10 Q1036
  • 270520Z AUTO 11004KT 9999 NCD 14/10 Q1036
  • 270450Z AUTO 10006KT 9999 NCD 14/09 Q1036
  • 270420Z AUTO 09004KT 9999 NCD 14/09 Q1036
  • 270350Z AUTO 06004KT 9999 NCD 14/09 Q1036

TAF TAF EGLC
Valid from the 27 at 04:00 until the 27 at 12:00 UTC


270438Z 2704/2712 08004KT 9999 FEW045
ATIS : +44 20 7646 0224



MET'MAP, your aeronautical weather chart ! - Copyright ORBIFLY December 2007 - Disclaimer

ORBIFLY MET'MAP TEAM :

Programming & Development : Alexandra Zaïnal
Concept & original design : Baudouin d'Aumeries
Assistance for programming : Marc-Olivier Méhu
Technical & hardware support : Manuel Goepfert

Contact : metmap@orbifly.com




SOURCES & CREDITS :

   NOAA